Fox Island, Washington
Current Conditions -  °F | °C
As of 1:53 PM on Thursday 23 Oct 2014 (Local Time) from KTIW Reporting Station
Broken Clouds Broken Clouds  
Wind Chill: 56°   Ceiling: 12000
Heat Index: 56°   Visibility: 10mi
Dew Point: 48°   Wind: 14mph
Humidity: 75%   Direction: 180°S
Pressure: 29.83"   Gusts: NA
Location:  47.25°N, 122.63°W
Report Text: KTIW 232053Z 18012KT 10SM FEW022 SCT075 BKN120 13/09 A2983 RMK AO2 SLP102 60001 T01330089 51009
Loading
Personal Weather Stations






























Interactive Weather Map New forecast layout! Learn more

10-Day Weather Forecast

Advertisements
Track Severe Weather on mobile